Time;durP1;ratioP1;P1;durP2;ratioP2;P2;SDS_P1;SDS_P2;PMS_P1;PMS_P2;Temp;Humidity;BMP_temperature;BMP_pressure;BME280_temperature;BME280_humidity;BME280_pressure;Samples;Min_cycle;Max_cycle;Signal;HPM_P1;HPM_P2
2022/07/06 00:01:18;;;;;;;1.10;1.10;;;18.60;95.80;;;;;;7378634;19;20341;-73
2022/07/06 00:03:43;;;;;;;0.98;0.98;;;18.60;95.10;;;;;;7379773;19;20324;-73
2022/07/06 00:06:09;;;;;;;1.65;1.05;;;18.50;95.80;;;;;;7374663;19;20790;-75
2022/07/06 00:08:34;;;;;;;3.77;1.30;;;18.50;96.60;;;;;;7379418;19;20321;-74
2022/07/06 00:11:00;;;;;;;1.40;1.30;;;18.50;95.90;;;;;;7377366;19;20966;-74
2022/07/06 00:13:26;;;;;;;1.17;1.17;;;18.40;98.00;;;;;;7378424;19;20341;-75
2022/07/06 00:15:52;;;;;;;1.17;1.13;;;18.40;98.00;;;;;;7375593;19;20891;-74
2022/07/06 00:18:17;;;;;;;2.33;1.30;;;18.40;97.90;;;;;;7380272;19;20401;-74
2022/07/06 00:20:43;;;;;;;1.10;1.10;;;18.40;97.90;;;;;;7379327;19;20305;-75
2022/07/06 00:23:08;;;;;;;1.10;1.10;;;18.30;98.10;;;;;;7379024;19;20324;-73
2022/07/06 00:25:34;;;;;;;1.20;1.10;;;18.30;99.20;;;;;;7375500;19;21206;-74
2022/07/06 00:27:59;;;;;;;1.20;1.07;;;18.30;99.90;;;;;;7380456;19;20352;-76
2022/07/06 00:30:25;;;;;;;1.20;1.20;;;18.30;99.90;;;;;;7378456;19;20360;-73
2022/07/06 00:32:50;;;;;;;2.22;1.27;;;18.30;99.90;;;;;;7378485;19;20688;-76
2022/07/06 00:35:16;;;;;;;1.30;1.20;;;18.10;99.90;;;;;;7375296;19;20340;-76
2022/07/06 00:37:42;;;;;;;1.00;1.00;;;18.00;99.90;;;;;;7377910;19;20863;-73
2022/07/06 00:40:08;;;;;;;1.20;1.10;;;18.00;99.90;;;;;;7378335;19;20401;-76
2022/07/06 00:42:44;;;;;;;1.10;1.10;;;18.00;99.90;;;;;;7378061;19;21040;-79
2022/07/06 00:45:10;;;;;;;1.20;1.20;;;18.00;99.90;;;;;;7371841;19;21355;-74
2022/07/06 00:47:36;;;;;;;1.05;1.05;;;17.90;99.90;;;;;;7374323;19;20341;-74
2022/07/06 00:50:17;;;;;;;1.83;1.27;;;17.90;99.90;;;;;;7377892;19;20309;-76
2022/07/06 00:53:02;;;;;;;1.30;1.20;;;17.80;99.90;;;;;;7271846;19;2004802;-77
2022/07/06 00:55:29;;;;;;;1.10;1.10;;;17.80;99.90;;;;;;7373747;19;20341;-80
2022/07/06 00:57:55;;;;;;;1.40;1.30;;;17.80;99.90;;;;;;7377776;19;20435;-76
2022/07/06 01:00:22;;;;;;;1.20;1.20;;;17.90;99.90;;;;;;7375794;19;20959;-79
2022/07/06 01:02:48;;;;;;;5.47;3.20;;;17.80;99.90;;;;;;7377240;19;20987;-73
2022/07/06 01:05:14;;;;;;;10.87;7.27;;;17.80;99.90;;;;;;7373572;19;20364;-74
2022/07/06 01:07:41;;;;;;;18.65;10.77;;;17.80;99.90;;;;;;7378442;19;20384;-72
2022/07/06 01:10:08;;;;;;;29.27;16.73;;;17.80;99.90;;;;;;7377625;19;20296;-76
2022/07/06 01:12:37;;;;;;;45.85;25.80;;;17.80;99.90;;;;;;7376879;19;20372;-76
2022/07/06 01:15:04;;;;;;;62.30;36.08;;;17.80;99.90;;;;;;7374445;19;20368;-75
2022/07/06 01:17:29;;;;;;;60.83;35.85;;;17.80;99.90;;;;;;7376466;19;20344;-78
2022/07/06 01:19:55;;;;;;;58.47;34.30;;;17.80;99.90;;;;;;7378590;19;20337;-76
2022/07/06 01:22:21;;;;;;;51.30;30.08;;;17.70;99.90;;;;;;7377416;19;20824;-77
2022/07/06 01:24:46;;;;;;;31.63;19.97;;;17.70;99.90;;;;;;7375298;19;20416;-73
2022/07/06 01:27:12;;;;;;;22.60;13.47;;;17.70;99.90;;;;;;7373351;19;20317;-74
2022/07/06 01:29:37;;;;;;;16.00;10.02;;;17.60;99.90;;;;;;7380265;19;20324;-76
2022/07/06 01:32:04;;;;;;;13.23;7.68;;;17.60;99.90;;;;;;7376592;19;20386;-75
2022/07/06 01:34:29;;;;;;;15.68;9.18;;;17.60;99.90;;;;;;7375928;19;20352;-72
2022/07/06 01:36:56;;;;;;;16.92;9.32;;;17.60;99.90;;;;;;7375741;19;20416;-75
2022/07/06 01:39:21;;;;;;;14.60;9.87;;;17.40;99.90;;;;;;7376933;19;20405;-74
2022/07/06 01:41:47;;;;;;;15.85;9.18;;;17.30;99.90;;;;;;7374787;19;20348;-74
2022/07/06 01:44:12;;;;;;;14.45;8.30;;;17.30;99.90;;;;;;7368541;19;20332;-74
2022/07/06 01:46:38;;;;;;;10.93;6.77;;;17.30;99.90;;;;;;7369755;19;20307;-74
2022/07/06 01:49:04;;;;;;;6.50;5.53;;;17.40;99.90;;;;;;7374514;19;20296;-73
2022/07/06 01:51:30;;;;;;;8.90;5.82;;;17.40;99.90;;;;;;7376655;19;20503;-75
2022/07/06 01:53:58;;;;;;;9.02;6.30;;;17.40;99.90;;;;;;7377429;19;20341;-75
2022/07/06 01:56:24;;;;;;;10.45;5.78;;;17.40;99.90;;;;;;7369760;19;20316;-76
2022/07/06 01:58:53;;;;;;;6.55;4.88;;;17.40;99.90;;;;;;7376145;19;21222;-73
2022/07/06 02:01:20;;;;;;;6.57;5.43;;;17.40;99.90;;;;;;7374214;19;20309;-76
2022/07/06 02:03:46;;;;;;;10.90;6.23;;;17.50;99.90;;;;;;7376945;19;20336;-74
2022/07/06 02:06:12;;;;;;;6.90;5.15;;;17.60;99.90;;;;;;7371685;19;21070;-74
2022/07/06 02:08:38;;;;;;;5.32;4.25;;;17.60;99.90;;;;;;7376908;19;20943;-80
2022/07/06 02:11:07;;;;;;;6.47;3.90;;;17.50;99.90;;;;;;7376859;19;20334;-74
2022/07/06 02:13:34;;;;;;;4.75;3.08;;;17.50;99.90;;;;;;7375987;19;20665;-73
2022/07/06 02:16:01;;;;;;;3.65;2.78;;;17.50;99.90;;;;;;7372820;19;20347;-77
2022/07/06 02:18:26;;;;;;;4.07;2.73;;;17.40;99.90;;;;;;7373158;19;20329;-79
2022/07/06 02:20:52;;;;;;;2.90;2.58;;;17.40;99.90;;;;;;7375571;19;20337;-78
2022/07/06 02:23:17;;;;;;;2.50;2.30;;;17.50;99.90;;;;;;7376668;19;20708;-78
2022/07/06 02:25:44;;;;;;;2.30;2.10;;;17.40;99.90;;;;;;7371277;19;20353;-75
2022/07/06 02:28:09;;;;;;;2.50;2.30;;;17.40;99.90;;;;;;7374553;19;20309;-81
2022/07/06 02:30:35;;;;;;;2.20;2.00;;;17.30;99.90;;;;;;7374552;19;20408;-76
2022/07/06 02:33:01;;;;;;;1.73;1.63;;;17.30;99.90;;;;;;7376456;19;20699;-78
2022/07/06 02:35:26;;;;;;;2.85;1.60;;;17.30;99.90;;;;;;7367076;19;20349;-76
2022/07/06 02:37:52;;;;;;;1.80;1.70;;;17.20;99.90;;;;;;7374674;19;20341;-76
2022/07/06 02:40:18;;;;;;;1.90;1.80;;;17.20;99.90;;;;;;7375840;19;20733;-80
2022/07/06 02:42:44;;;;;;;1.60;1.50;;;17.20;99.90;;;;;;7375119;19;20320;-75
2022/07/06 02:45:10;;;;;;;1.70;1.60;;;17.20;99.90;;;;;;7370358;19;20386;-75
2022/07/06 02:47:37;;;;;;;2.05;1.85;;;17.10;99.90;;;;;;7373838;19;20320;-74
2022/07/06 02:50:04;;;;;;;2.50;1.60;;;17.20;99.90;;;;;;7374478;19;20351;-73
2022/07/06 02:52:30;;;;;;;1.67;1.58;;;17.10;99.90;;;;;;7373966;19;20360;-76
2022/07/06 02:54:57;;;;;;;1.70;1.60;;;17.10;99.90;;;;;;7371828;19;20353;-75
2022/07/06 02:57:23;;;;;;;1.73;1.63;;;17.00;99.90;;;;;;7369508;19;20420;-73
2022/07/06 02:59:49;;;;;;;1.80;1.70;;;16.90;99.90;;;;;;7375426;19;20431;-75
2022/07/06 03:02:16;;;;;;;1.80;1.70;;;16.90;99.90;;;;;;7371409;19;20426;-74
2022/07/06 03:04:42;;;;;;;2.00;1.50;;;16.70;99.90;;;;;;7370240;19;20481;-72
2022/07/06 03:07:07;;;;;;;2.90;1.90;;;16.70;99.90;;;;;;7373297;19;21213;-77
2022/07/06 03:09:33;;;;;;;2.30;2.10;;;16.70;99.90;;;;;;7374741;19;20307;-80
2022/07/06 03:11:59;;;;;;;2.42;1.95;;;16.60;99.90;;;;;;7372601;19;20426;-74
2022/07/06 03:14:28;;;;;;;3.10;1.95;;;16.60;99.90;;;;;;7374201;19;20346;-75
2022/07/06 03:16:54;;;;;;;3.08;1.98;;;16.50;99.90;;;;;;7370987;19;20349;-74
2022/07/06 03:19:20;;;;;;;2.00;1.90;;;16.50;99.90;;;;;;7375302;19;20380;-73
2022/07/06 03:21:45;;;;;;;1.97;1.73;;;16.40;99.90;;;;;;7373461;19;20349;-74
2022/07/06 03:24:11;;;;;;;1.85;1.75;;;16.30;99.90;;;;;;7374066;19;20328;-75
2022/07/06 03:26:36;;;;;;;1.93;1.60;;;16.10;99.90;;;;;;7370678;19;20344;-73
2022/07/06 03:29:02;;;;;;;2.30;1.53;;;16.20;99.90;;;;;;7375576;19;20317;-73
2022/07/06 03:31:28;;;;;;;1.73;1.60;;;16.10;99.90;;;;;;7370925;19;22479;-76
2022/07/06 03:33:54;;;;;;;3.53;1.70;;;16.10;99.90;;;;;;7372498;19;20358;-77
2022/07/06 03:36:19;;;;;;;1.83;1.60;;;16.00;99.90;;;;;;7368557;19;20349;-76
2022/07/06 03:38:46;;;;;;;1.88;1.67;;;15.90;99.90;;;;;;7372188;19;20357;-73
2022/07/06 03:41:11;;;;;;;1.83;1.67;;;15.90;99.90;;;;;;7374141;19;20332;-77
2022/07/06 03:43:37;;;;;;;2.50;1.80;;;15.90;99.90;;;;;;7373351;19;20337;-76
2022/07/06 03:46:03;;;;;;;1.33;1.33;;;16.00;99.90;;;;;;7354643;19;20850;-76
2022/07/06 03:48:28;;;;;;;1.80;1.70;;;16.00;99.90;;;;;;7378355;19;20416;-74
2022/07/06 03:50:54;;;;;;;2.08;1.85;;;16.00;99.90;;;;;;7378636;19;20986;-74
2022/07/06 03:53:21;;;;;;;1.80;1.70;;;15.90;99.90;;;;;;7379690;19;22266;-79
2022/07/06 03:56:27;;;;;;;1.93;1.83;;;15.80;99.90;;;;;;7374386;19;20340;-78
2022/07/06 03:58:33;;;;;;;3.80;2.60;;;15.80;99.90;;;;;;7379643;19;20700;-75
2022/07/06 04:00:58;;;;;;;6.28;3.78;;;15.90;99.90;;;;;;7377954;19;20345;-75
2022/07/06 04:03:24;;;;;;;8.97;5.80;;;16.00;99.90;;;;;;7380688;19;20893;-74
2022/07/06 04:05:50;;;;;;;8.70;6.50;;;16.10;99.90;;;;;;7375198;19;20863;-74
2022/07/06 04:08:16;;;;;;;11.33;7.07;;;16.10;99.90;;;;;;7376117;19;20313;-73
2022/07/06 04:10:46;;;;;;;15.15;8.80;;;16.10;99.90;;;;;;7378408;19;20340;-74
2022/07/06 04:13:12;;;;;;;12.13;7.97;;;16.00;99.90;;;;;;7378761;19;20313;-74
2022/07/06 04:15:39;;;;;;;13.82;7.80;;;16.00;99.90;;;;;;7376359;19;20749;-74
2022/07/06 04:18:06;;;;;;;11.13;7.70;;;16.10;99.90;;;;;;7381566;19;20329;-72
2022/07/06 04:20:37;;;;;;;9.77;6.90;;;16.10;99.90;;;;;;7378684;19;20305;-77
2022/07/06 04:23:03;;;;;;;10.37;6.27;;;16.10;99.90;;;;;;7380318;19;20341;-76
2022/07/06 04:25:29;;;;;;;9.93;6.25;;;16.10;99.90;;;;;;7373175;19;20348;-71
2022/07/06 04:27:58;;;;;;;7.65;5.57;;;16.10;99.90;;;;;;7379585;19;20333;-78
2022/07/06 04:30:23;;;;;;;9.00;5.37;;;16.20;99.90;;;;;;7378808;19;20438;-75
2022/07/06 04:32:49;;;;;;;6.53;4.45;;;16.30;99.90;;;;;;7379450;19;20911;-75
2022/07/06 04:35:15;;;;;;;6.73;4.10;;;16.40;99.90;;;;;;7372680;19;20344;-75
2022/07/06 04:37:45;;;;;;;6.13;3.70;;;16.60;99.90;;;;;;7379605;19;20312;-74
2022/07/06 04:40:11;;;;;;;3.70;3.20;;;16.60;99.90;;;;;;7377308;19;21208;-77
2022/07/06 04:42:37;;;;;;;3.40;2.90;;;16.70;99.90;;;;;;7378943;19;20301;-72
2022/07/06 04:45:03;;;;;;;4.20;2.88;;;16.60;99.90;;;;;;7376099;19;20341;-72
2022/07/06 04:47:28;;;;;;;2.67;2.38;;;16.60;99.90;;;;;;7378972;19;20331;-73
2022/07/06 04:49:55;;;;;;;2.55;2.20;;;16.60;99.90;;;;;;7380457;19;20904;-73
2022/07/06 04:52:21;;;;;;;2.38;2.17;;;16.70;99.90;;;;;;7380958;19;20323;-79
2022/07/06 04:54:47;;;;;;;2.00;1.90;;;16.80;99.90;;;;;;7374522;19;21292;-74
2022/07/06 04:57:13;;;;;;;2.10;1.90;;;16.80;99.90;;;;;;7380373;19;20390;-73
2022/07/06 04:59:40;;;;;;;1.70;1.60;;;16.80;99.90;;;;;;7379784;19;20394;-72
2022/07/06 05:02:06;;;;;;;1.52;1.42;;;16.70;99.90;;;;;;7376049;19;20405;-73
2022/07/06 05:04:32;;;;;;;2.23;1.40;;;16.80;99.90;;;;;;7374402;19;20348;-73
2022/07/06 05:06:58;;;;;;;1.63;1.40;;;16.90;99.90;;;;;;7372542;19;20380;-76
2022/07/06 05:09:23;;;;;;;1.67;1.58;;;17.00;99.90;;;;;;7380376;19;20325;-74
2022/07/06 05:11:50;;;;;;;1.35;1.25;;;17.10;99.90;;;;;;7379117;19;20364;-75
2022/07/06 05:14:16;;;;;;;1.58;1.38;;;17.30;99.90;;;;;;7378711;19;20313;-73
2022/07/06 05:16:42;;;;;;;1.20;1.20;;;17.40;99.90;;;;;;7374594;19;20300;-79
2022/07/06 05:19:08;;;;;;;1.80;1.20;;;17.60;99.90;;;;;;7379825;19;20787;-80
2022/07/06 05:21:34;;;;;;;2.30;1.30;;;17.70;99.90;;;;;;7373778;19;20336;-78
2022/07/06 05:24:00;;;;;;;1.30;1.08;;;17.90;99.90;;;;;;7374198;19;20380;-76
2022/07/06 05:26:26;;;;;;;1.40;1.10;;;18.00;99.90;;;;;;7370517;19;20464;-78
2022/07/06 05:28:51;;;;;;;1.03;1.00;;;17.90;99.90;;;;;;7375604;19;20378;-76
2022/07/06 05:31:20;;;;;;;1.80;1.00;;;17.90;99.90;;;;;;7372562;19;20335;-75
2022/07/06 05:33:46;;;;;;;1.33;1.20;;;17.80;99.90;;;;;;7374184;19;20324;-76
2022/07/06 05:36:11;;;;;;;1.42;1.10;;;17.90;99.90;;;;;;7367631;19;20349;-74
2022/07/06 05:38:38;;;;;;;1.88;1.25;;;17.90;99.90;;;;;;7375616;19;20313;-77
2022/07/06 05:41:04;;;;;;;1.20;1.10;;;18.00;99.90;;;;;;7377910;19;20324;-73
2022/07/06 05:43:31;;;;;;;1.10;1.00;;;18.00;99.90;;;;;;7378377;19;20726;-74
2022/07/06 05:45:59;;;;;;;1.10;1.00;;;18.00;99.90;;;;;;7371613;19;20332;-79
2022/07/06 05:51:12;;;;;;;1.00;1.00;;;18.20;99.90;;;;;;7375651;19;20695;-77
2022/07/06 05:53:40;;;;;;;0.98;0.98;;;18.20;99.90;;;;;;7378275;19;20390;-76
2022/07/06 05:56:06;;;;;;;1.30;1.20;;;18.40;99.90;;;;;;7370412;19;20383;-75
2022/07/06 05:58:33;;;;;;;0.90;0.90;;;18.30;99.90;;;;;;7377917;19;20416;-77
2022/07/06 06:00:59;;;;;;;1.40;1.10;;;18.50;99.90;;;;;;7378617;19;20324;-75
2022/07/06 06:03:25;;;;;;;3.43;1.10;;;18.60;99.90;;;;;;7377880;19;20336;-77
2022/07/06 06:05:50;;;;;;;1.03;1.00;;;18.60;99.90;;;;;;7371772;19;20325;-73
2022/07/06 06:08:18;;;;;;;0.88;0.88;;;18.70;99.90;;;;;;7377175;19;20319;-73
2022/07/06 06:10:43;;;;;;;2.20;1.03;;;18.60;99.90;;;;;;7375291;19;20301;-77
2022/07/06 06:13:12;;;;;;;1.00;1.00;;;18.70;99.90;;;;;;7378548;19;20693;-74
2022/07/06 06:15:39;;;;;;;1.20;1.10;;;18.60;99.90;;;;;;7373134;19;20285;-74
2022/07/06 06:18:04;;;;;;;1.10;1.00;;;19.00;99.90;;;;;;7378079;19;20340;-75
2022/07/06 06:20:30;;;;;;;2.90;1.00;;;19.20;99.90;;;;;;7375874;19;20344;-76
2022/07/06 06:22:57;;;;;;;2.20;1.20;;;19.30;99.90;;;;;;7377470;19;21124;-76
2022/07/06 06:25:35;;;;;;;0.90;0.90;;;19.40;99.90;;;;;;7371763;19;21202;-75
2022/07/06 06:28:05;;;;;;;1.70;1.13;;;19.50;99.90;;;;;;7377021;19;20358;-74
2022/07/06 06:30:31;;;;;;;2.60;1.27;;;19.60;99.90;;;;;;7375581;19;21238;-75
2022/07/06 06:33:10;;;;;;;2.28;1.00;;;19.50;99.90;;;;;;7376548;19;20404;-74
2022/07/06 06:35:35;;;;;;;1.40;1.10;;;19.40;99.90;;;;;;7372495;19;20305;-73
2022/07/06 06:38:01;;;;;;;1.15;1.05;;;19.30;99.90;;;;;;7376762;19;20380;-72
2022/07/06 06:40:27;;;;;;;1.17;1.07;;;19.30;99.90;;;;;;7376734;19;21202;-75
2022/07/06 06:42:52;;;;;;;1.20;1.10;;;19.30;99.90;;;;;;7375309;19;20359;-74
2022/07/06 06:45:18;;;;;;;2.40;1.05;;;19.30;99.90;;;;;;7372308;19;20332;-73
2022/07/06 06:47:43;;;;;;;1.93;1.10;;;19.30;99.90;;;;;;7375929;19;20332;-75
2022/07/06 06:50:09;;;;;;;1.30;1.20;;;19.40;99.90;;;;;;7374867;19;21186;-74
2022/07/06 06:52:34;;;;;;;1.40;1.30;;;19.40;99.90;;;;;;7378798;19;20328;-75
2022/07/06 06:55:00;;;;;;;1.40;1.00;;;19.40;99.90;;;;;;7371507;19;20336;-74
2022/07/06 06:57:26;;;;;;;2.13;1.20;;;19.50;99.90;;;;;;7374858;19;20320;-74
2022/07/06 06:59:51;;;;;;;2.40;1.10;;;19.50;99.90;;;;;;7376616;19;20340;-76
2022/07/06 07:02:17;;;;;;;1.02;1.02;;;19.40;99.90;;;;;;7373362;19;20308;-73
2022/07/06 07:04:43;;;;;;;0.85;0.85;;;19.60;99.90;;;;;;7374006;19;20313;-75
2022/07/06 07:07:08;;;;;;;1.10;0.90;;;19.80;99.90;;;;;;7370994;19;20348;-76
2022/07/06 07:09:34;;;;;;;0.80;0.80;;;19.80;99.90;;;;;;7377439;19;20656;-73
2022/07/06 07:11:59;;;;;;;1.70;1.03;;;19.90;99.90;;;;;;7373835;19;20344;-73
2022/07/06 07:14:25;;;;;;;0.95;0.95;;;20.00;99.90;;;;;;7373476;19;21853;-76
2022/07/06 07:16:50;;;;;;;2.25;1.10;;;20.00;99.90;;;;;;7369459;19;20793;-73
2022/07/06 07:19:16;;;;;;;0.90;0.87;;;20.10;99.90;;;;;;7375228;19;20312;-76
2022/07/06 07:21:42;;;;;;;1.10;1.00;;;20.20;99.90;;;;;;7375856;19;20309;-79
2022/07/06 07:24:08;;;;;;;1.05;0.90;;;20.40;99.90;;;;;;7381820;19;20361;-76
2022/07/06 07:26:33;;;;;;;1.73;1.20;;;20.10;99.90;;;;;;7374612;19;21091;-76
2022/07/06 07:28:59;;;;;;;1.10;1.00;;;20.40;99.90;;;;;;7380686;19;20351;-74
2022/07/06 07:31:24;;;;;;;1.00;1.00;;;20.70;99.90;;;;;;7377842;19;20404;-75
2022/07/06 07:33:50;;;;;;;1.70;1.10;;;20.90;99.90;;;;;;7378211;19;20874;-75
2022/07/06 07:36:16;;;;;;;2.97;1.02;;;21.00;99.90;;;;;;7372314;19;20380;-75
2022/07/06 07:38:41;;;;;;;2.73;1.70;;;20.80;99.90;;;;;;7381492;19;21334;-74
2022/07/06 07:41:07;;;;;;;6.67;3.97;;;21.10;99.90;;;;;;7372584;19;20357;-75
2022/07/06 07:43:33;;;;;;;8.68;4.60;;;20.70;99.90;;;;;;7381830;19;20316;-77
2022/07/06 07:45:58;;;;;;;5.30;3.03;;;21.00;99.90;;;;;;7374023;19;20794;-77
2022/07/06 07:48:24;;;;;;;4.10;2.80;;;21.30;99.90;;;;;;7381407;19;20392;-76
2022/07/06 07:50:49;;;;;;;5.47;4.13;;;21.40;99.90;;;;;;7378982;19;20833;-75
2022/07/06 07:53:15;;;;;;;15.50;6.97;;;21.60;99.90;;;;;;7382149;19;20388;-75
2022/07/06 07:55:40;;;;;;;13.10;7.53;;;21.60;99.90;;;;;;7378527;19;20300;-80
2022/07/06 07:58:06;;;;;;;11.45;6.97;;;21.50;99.90;;;;;;7381623;19;20318;-75
2022/07/06 08:00:31;;;;;;;12.80;7.68;;;21.70;99.90;;;;;;7380379;19;20316;-73
2022/07/06 08:02:57;;;;;;;14.77;7.53;;;21.80;99.90;;;;;;7381494;19;20931;-74
2022/07/06 08:05:23;;;;;;;11.73;7.93;;;21.60;99.90;;;;;;7374551;19;20340;-74
2022/07/06 08:07:48;;;;;;;7.43;5.13;;;21.60;99.90;;;;;;7380856;19;20703;-76
2022/07/06 08:10:14;;;;;;;6.10;3.40;;;21.60;99.90;;;;;;7381439;19;20331;-80
2022/07/06 08:12:39;;;;;;;7.43;5.30;;;21.70;99.90;;;;;;7381674;19;20325;-77
2022/07/06 08:15:05;;;;;;;9.47;5.23;;;22.00;99.90;;;;;;7374820;19;20341;-72
2022/07/06 08:17:31;;;;;;;12.80;5.35;;;21.90;98.10;;;;;;7382960;19;20357;-77
2022/07/06 08:19:57;;;;;;;8.83;5.30;;;22.00;98.80;;;;;;7381049;19;20861;-76
2022/07/06 08:22:22;;;;;;;10.27;5.55;;;22.10;97.70;;;;;;7381396;19;20316;-75
2022/07/06 08:24:48;;;;;;;4.53;3.43;;;22.20;97.70;;;;;;7378055;19;20340;-75
2022/07/06 08:27:13;;;;;;;2.60;1.93;;;22.30;97.80;;;;;;7378262;19;20299;-79
2022/07/06 08:29:39;;;;;;;2.97;1.60;;;22.00;96.50;;;;;;7381398;19;20308;-79
2022/07/06 08:32:05;;;;;;;5.15;1.80;;;22.20;97.30;;;;;;7379654;19;20447;-75
2022/07/06 08:34:30;;;;;;;1.60;1.20;;;22.40;97.40;;;;;;7380106;19;20372;-77
2022/07/06 08:36:56;;;;;;;1.60;1.20;;;22.60;95.30;;;;;;7377435;19;21276;-75
2022/07/06 08:39:21;;;;;;;4.80;1.90;;;22.90;92.50;;;;;;7381493;19;20339;-72
2022/07/06 08:41:47;;;;;;;4.57;1.97;;;22.60;91.40;;;;;;7378699;19;20369;-76
2022/07/06 08:44:14;;;;;;;4.13;2.60;;;22.40;90.60;;;;;;7380023;19;20314;-73
2022/07/06 08:46:40;;;;;;;8.73;4.68;;;22.50;91.20;;;;;;7373829;19;20346;-74
2022/07/06 08:49:08;;;;;;;5.50;3.53;;;22.70;90.20;;;;;;7381843;19;20328;-76
2022/07/06 08:51:35;;;;;;;4.32;2.90;;;23.20;89.70;;;;;;7379584;19;20348;-73
2022/07/06 08:54:04;;;;;;;3.00;2.53;;;23.50;90.40;;;;;;7381473;19;20356;-74
2022/07/06 08:56:30;;;;;;;3.45;2.40;;;23.30;88.40;;;;;;7373991;19;20333;-74
2022/07/06 08:58:55;;;;;;;1.00;0.90;;;23.50;90.50;;;;;;7379952;19;20736;-75
2022/07/06 09:01:21;;;;;;;1.30;1.10;;;23.90;90.60;;;;;;7379405;19;20337;-73
2022/07/06 09:03:48;;;;;;;2.20;1.10;;;23.20;86.90;;;;;;7379585;19;20325;-74
2022/07/06 09:06:14;;;;;;;1.83;1.00;;;23.60;88.80;;;;;;7376223;19;21403;-73
2022/07/06 09:08:39;;;;;;;1.77;1.20;;;23.70;90.30;;;;;;7380779;19;20396;-74
2022/07/06 09:11:05;;;;;;;2.47;1.60;;;23.80;89.40;;;;;;7378620;19;20325;-71
2022/07/06 09:13:31;;;;;;;1.50;1.37;;;24.10;89.20;;;;;;7378710;19;20337;-72
2022/07/06 09:15:56;;;;;;;2.20;1.50;;;23.70;87.30;;;;;;7373540;19;20362;-75
2022/07/06 09:18:22;;;;;;;1.23;1.13;;;23.40;85.20;;;;;;7379402;19;20348;-71
2022/07/06 09:20:47;;;;;;;2.10;1.10;;;23.30;85.20;;;;;;7377952;19;20343;-72
2022/07/06 09:23:15;;;;;;;1.40;0.97;;;23.00;86.40;;;;;;7379765;19;20336;-71
2022/07/06 09:25:41;;;;;;;1.10;0.80;;;23.30;85.00;;;;;;7371539;19;20332;-72
2022/07/06 09:28:06;;;;;;;1.38;1.10;;;23.30;82.40;;;;;;7376700;19;20877;-72
2022/07/06 09:30:32;;;;;;;1.13;1.10;;;23.50;86.60;;;;;;7379893;19;20327;-73
2022/07/06 09:32:58;;;;;;;0.93;0.93;;;23.00;81.10;;;;;;7378324;19;20353;-74
2022/07/06 09:35:25;;;;;;;1.20;1.10;;;23.30;81.40;;;;;;7371734;19;20333;-72
2022/07/06 09:38:07;;;;;;;2.20;0.90;;;23.50;88.40;;;;;;7379639;19;20345;-74
2022/07/06 09:40:37;;;;;;;1.98;1.20;;;23.30;81.50;;;;;;7377708;19;20320;-74
2022/07/06 09:43:10;;;;;;;1.55;0.95;;;23.00;83.00;;;;;;7378515;19;20348;-74
2022/07/06 09:45:36;;;;;;;1.30;1.20;;;22.60;83.90;;;;;;7371869;19;20967;-73
2022/07/06 09:48:13;;;;;;;1.07;1.00;;;22.50;88.90;;;;;;7377909;19;20388;-71
2022/07/06 09:50:40;;;;;;;2.47;1.00;;;22.80;89.40;;;;;;7377231;19;20318;-74
2022/07/06 09:53:07;;;;;;;1.33;0.98;;;22.60;86.90;;;;;;7376091;19;20353;-73
2022/07/06 09:55:32;;;;;;;1.17;0.95;;;22.70;85.90;;;;;;7374499;19;20411;-74
2022/07/06 09:57:58;;;;;;;1.17;1.00;;;22.70;86.40;;;;;;7378025;19;20448;-71
2022/07/06 10:00:23;;;;;;;1.02;1.00;;;23.10;88.20;;;;;;7376053;19;20400;-72
2022/07/06 10:02:49;;;;;;;1.38;1.10;;;23.00;84.10;;;;;;7377721;19;20356;-74
2022/07/06 10:05:18;;;;;;;1.30;1.07;;;22.90;85.20;;;;;;7374059;19;20440;-71
2022/07/06 10:07:47;;;;;;;0.87;0.87;;;22.60;86.00;;;;;;7377226;19;20705;-75
2022/07/06 10:10:13;;;;;;;1.20;0.90;;;22.70;86.70;;;;;;7376594;19;20442;-72
2022/07/06 10:12:39;;;;;;;0.87;0.87;;;22.70;88.80;;;;;;7378494;19;20510;-73
2022/07/06 10:15:05;;;;;;;3.00;1.20;;;23.30;85.90;;;;;;7373941;19;21054;-75
2022/07/06 10:17:30;;;;;;;1.00;0.90;;;23.70;86.10;;;;;;7378010;19;20344;-75
2022/07/06 10:19:56;;;;;;;1.00;1.00;;;23.70;83.90;;;;;;7378024;19;20405;-73
2022/07/06 10:22:21;;;;;;;1.00;1.00;;;23.10;81.40;;;;;;7376833;19;20313;-70
2022/07/06 10:24:47;;;;;;;1.80;0.90;;;23.30;84.10;;;;;;7375060;19;20328;-71
2022/07/06 10:27:13;;;;;;;1.70;1.10;;;22.80;81.20;;;;;;7372559;19;20370;-73
2022/07/06 10:29:38;;;;;;;1.10;1.00;;;23.20;84.80;;;;;;7378135;19;20301;-73
2022/07/06 10:32:04;;;;;;;1.10;1.00;;;23.00;82.10;;;;;;7377168;19;20346;-72
2022/07/06 10:34:29;;;;;;;1.58;1.10;;;23.20;84.70;;;;;;7377455;19;20705;-72
2022/07/06 10:36:55;;;;;;;1.03;0.93;;;23.10;83.50;;;;;;7372769;19;20397;-72
2022/07/06 10:42:41;;;;;;;0.88;0.88;;;23.30;81.30;;;;;;7272518;19;2004984;-71
2022/07/06 10:45:07;;;;;;;1.10;1.00;;;23.20;82.20;;;;;;7373807;19;20333;-70
2022/07/06 10:47:33;;;;;;;1.23;1.00;;;24.20;81.10;;;;;;7376399;19;20409;-76
2022/07/06 10:49:59;;;;;;;1.27;1.10;;;24.80;82.90;;;;;;7373144;19;20404;-72
2022/07/06 10:52:49;;;;;;;2.97;1.00;;;24.40;81.20;;;;;;7375402;19;20312;-72
2022/07/06 10:55:35;;;;;;;0.88;0.88;;;23.80;78.20;;;;;;7371525;19;20319;-72
2022/07/06 10:58:01;;;;;;;1.10;1.00;;;23.80;83.20;;;;;;7270348;19;2004495;-72
2022/07/06 11:00:53;;;;;;;0.90;0.90;;;23.90;81.20;;;;;;7378698;19;20312;-70
2022/07/06 11:03:36;;;;;;;1.10;0.90;;;24.40;79.10;;;;;;7279635;19;2004396;-72
2022/07/06 11:06:22;;;;;;;0.90;0.90;;;24.40;76.40;;;;;;7376341;19;20329;-73
2022/07/06 11:08:51;;;;;;;1.10;1.00;;;24.80;76.90;;;;;;7279312;19;2004738;-71
2022/07/06 11:11:20;;;;;;;0.90;0.90;;;25.00;78.90;;;;;;7380594;19;20332;-70
2022/07/06 11:14:03;;;;;;;1.02;1.00;;;25.60;74.50;;;;;;7383643;19;20352;-71
2022/07/06 11:16:33;;;;;;;0.88;0.88;;;25.70;72.60;;;;;;7271487;19;2019961;-73
2022/07/06 11:19:12;;;;;;;0.80;0.80;;;25.40;71.70;;;;;;7381000;19;20344;-71
2022/07/06 11:21:56;;;;;;;1.70;0.93;;;24.80;72.10;;;;;;7379918;19;20340;-71
2022/07/06 11:24:29;;;;;;;5.83;4.50;;;24.10;76.50;;;;;;7276947;19;2004466;-74
2022/07/06 11:26:55;;;;;;;8.70;6.10;;;24.20;73.60;;;;;;7374671;19;20353;-71
2022/07/06 11:29:21;;;;;;;10.70;7.05;;;24.10;76.70;;;;;;7380679;19;20359;-70
2022/07/06 11:31:48;;;;;;;11.60;7.32;;;24.10;72.50;;;;;;7374846;19;20977;-70
2022/07/06 11:34:21;;;;;;;13.88;7.20;;;24.50;74.00;;;;;;7381008;19;20386;-72
2022/07/06 11:36:47;;;;;;;11.13;7.22;;;24.50;72.90;;;;;;7371264;19;20340;-70
2022/07/06 11:39:13;;;;;;;5.07;2.90;;;24.10;72.50;;;;;;7379685;19;20337;-74
2022/07/06 11:41:39;;;;;;;3.05;1.88;;;23.80;72.70;;;;;;7380738;19;20372;-71
2022/07/06 11:44:04;;;;;;;1.17;1.07;;;24.10;71.70;;;;;;7379161;19;20340;-70
2022/07/06 11:46:31;;;;;;;1.60;0.80;;;24.10;72.00;;;;;;7372322;19;20340;-70
2022/07/06 11:48:58;;;;;;;0.90;0.90;;;24.10;74.40;;;;;;7377663;19;20361;-70
2022/07/06 11:51:26;;;;;;;1.38;1.00;;;24.00;71.30;;;;;;7374157;19;20337;-70
2022/07/06 11:53:53;;;;;;;0.90;0.90;;;23.40;68.60;;;;;;7377807;19;20376;-74
2022/07/06 11:56:21;;;;;;;1.08;1.00;;;23.50;72.70;;;;;;7370445;19;20914;-72
2022/07/06 11:58:48;;;;;;;0.80;0.80;;;23.60;73.30;;;;;;7375397;19;20355;-71
2022/07/06 12:01:14;;;;;;;1.33;0.93;;;24.30;72.30;;;;;;7373051;19;20610;-72
2022/07/06 12:03:40;;;;;;;0.80;0.80;;;24.50;71.10;;;;;;7380756;19;21259;-74
2022/07/06 12:06:06;;;;;;;0.87;0.87;;;24.20;71.70;;;;;;7375063;19;20361;-70
2022/07/06 12:08:40;;;;;;;0.98;0.93;;;24.20;70.00;;;;;;7380222;19;20361;-71
2022/07/06 12:11:05;;;;;;;3.10;0.80;;;24.50;73.40;;;;;;7380209;19;20333;-74
2022/07/06 12:13:38;;;;;;;0.90;0.80;;;24.70;73.20;;;;;;7380874;19;20323;-71
2022/07/06 12:16:13;;;;;;;1.60;1.08;;;23.90;69.90;;;;;;7376965;19;20871;-72
2022/07/06 12:18:39;;;;;;;3.15;2.30;;;24.30;74.40;;;;;;7378341;19;20346;-72
2022/07/06 12:21:07;;;;;;;2.47;2.28;;;24.50;73.20;;;;;;7376250;19;20340;-71
2022/07/06 12:23:45;;;;;;;2.40;2.20;;;24.70;71.90;;;;;;7374231;19;20831;-73
2022/07/06 12:26:11;;;;;;;3.88;2.22;;;25.60;74.90;;;;;;7356594;19;20343;-73
2022/07/06 12:28:37;;;;;;;2.35;1.63;;;25.40;67.50;;;;;;7366309;19;20328;-72
2022/07/06 12:31:03;;;;;;;2.30;2.10;;;25.90;69.40;;;;;;7379833;19;20369;-71
2022/07/06 12:33:28;;;;;;;2.08;1.20;;;26.00;71.00;;;;;;7378591;19;20855;-70
2022/07/06 12:35:54;;;;;;;1.53;1.20;;;26.50;67.90;;;;;;7374124;19;20341;-72
2022/07/06 12:38:26;;;;;;;0.90;0.90;;;26.20;66.50;;;;;;7378290;19;20342;-72
2022/07/06 12:40:52;;;;;;;2.30;1.00;;;25.70;68.50;;;;;;7379433;19;20386;-72
2022/07/06 12:43:38;;;;;;;1.20;1.00;;;25.70;66.00;;;;;;7379452;19;20332;-71
2022/07/06 12:46:27;;;;;;;0.93;0.93;;;25.40;66.60;;;;;;7271468;19;2005946;-71
2022/07/06 12:48:56;;;;;;;0.77;0.77;;;25.00;66.10;;;;;;7276667;19;2004494;-73
2022/07/06 12:51:25;;;;;;;4.00;1.10;;;24.60;64.50;;;;;;7377588;19;21657;-74